Huvudsida
METAR-TAF:

METAR-TAF

Flygplatser :

Stuttgarts flygplats

Stuttgart, Tyskland

latitud: 48-41N, longitud: 009-13E, höjd: 396 m

Aktuellt väderrapport

Denna rapport gjordes för 36 minuter sedan, klockan 22:50 UTC
Vind 5 kt från väst/nordväst
Temperatur 12°C
Fuktighet 67%
Tryck 1030 hPa
Sikt 10 km eller mer
Inga moln under 1 500 m eller inga cumulonimbus

METAR: EDDS 272250Z 30005KT CAVOK 12/06 Q1030

Tid: 01:26 (23:26 UTC)

Väderprognos

Denna rapport gjordes för 6 timmar och 26 minuter sedan, klockan 17:00 UTC
Prognos gäller från 27 kl. 18 UTC till 28 kl. 18 UTC
Vind 3 kt varierande vindriktning
Sikt 10 km eller mer
Inga moln under 1 500 m eller inga cumulonimbus
Blir
från 28 kl. 07 UTC till 28 kl. 09 UTC
Vind 8 kt från nord

TAF: EDDS 271700Z 2718/2818 VRB03KT CAVOK BECMG 2807/2809 35008KT

Aktuella väderrapporter och prognoser från 4000 flygplatser (METAR- och TAF-rapporter).

De tillgängliga stationerna syns som gula och röda prickar på kartan.

För musen över prickarna för att se namnen på stationerna.

Klicka sedan för att få väderrapporter och prognoser.

För att ändra kartan: Klicka på de gröna knapparna med ett svart kors på för att zooma in; den gröna knappen med ett streck på för att zooma ut; eller på de gröna pilarna för angränsande kartor.


METAR-TAF: